Time;durP1;ratioP1;P1;durP2;ratioP2;P2;SDS_P1;SDS_P2;PMS_P1;PMS_P2;Temp;Humidity;BMP_temperature;BMP_pressure;BME280_temperature;BME280_humidity;BME280_pressure;Samples;Min_cycle;Max_cycle;Signal;HPM_P1;HPM_P2
2021/03/12 00:00:54;;;;;;;2.72;1.40;;;11.60;99.90;;;;;;5094548;28;20024;-82
2021/03/12 00:03:23;;;;;;;3.90;1.13;;;11.40;99.90;;;;;;5094069;28;20044;-82
2021/03/12 00:05:53;;;;;;;3.83;2.28;;;11.30;99.90;;;;;;5094875;28;20046;-82
2021/03/12 00:08:23;;;;;;;4.32;2.25;;;11.30;99.90;;;;;;5095015;28;20027;-82
2021/03/12 00:10:49;;;;;;;2.88;1.73;;;11.20;99.90;;;;;;5074444;28;20079;-82
2021/03/12 00:13:15;;;;;;;3.40;1.88;;;11.20;99.90;;;;;;5073388;28;20032;-82
2021/03/12 00:15:41;;;;;;;4.05;1.48;;;11.10;99.90;;;;;;5080275;28;20016;-82
2021/03/12 00:18:07;;;;;;;2.42;1.20;;;11.20;99.90;;;;;;5093927;28;20028;-82
2021/03/12 00:20:35;;;;;;;2.83;0.88;;;11.20;99.90;;;;;;5093034;28;20047;-82
2021/03/12 00:23:01;;;;;;;2.90;0.98;;;11.10;99.90;;;;;;5093716;28;20024;-82
2021/03/12 00:25:47;;;;;;;3.80;1.08;;;11.10;99.90;;;;;;5093897;28;20484;-82
2021/03/12 00:28:14;;;;;;;3.35;0.73;;;11.10;99.90;;;;;;5094009;28;20035;-82
2021/03/12 00:30:41;;;;;;;5.45;1.65;;;11.10;99.90;;;;;;5093112;28;20060;-82
2021/03/12 00:33:07;;;;;;;7.57;3.17;;;11.10;99.90;;;;;;5093336;28;20020;-82
2021/03/12 00:35:35;;;;;;;4.18;1.73;;;11.00;99.90;;;;;;5094091;28;20032;-82
2021/03/12 00:38:01;;;;;;;3.55;1.40;;;11.00;99.90;;;;;;5093817;28;20036;-82
2021/03/12 00:40:35;;;;;;;4.20;2.05;;;10.90;99.90;;;;;;5093785;28;20027;-82
2021/03/12 00:43:01;;;;;;;4.05;1.45;;;10.90;99.90;;;;;;5093898;28;20517;-82
2021/03/12 00:45:30;;;;;;;2.75;1.60;;;10.90;99.90;;;;;;5093222;28;20028;-82
2021/03/12 00:47:56;;;;;;;2.78;1.20;;;11.00;99.90;;;;;;5093189;28;20399;-82
2021/03/12 00:50:27;;;;;;;2.80;1.10;;;11.00;99.90;;;;;;5093496;28;20035;-82
2021/03/12 00:52:52;;;;;;;2.03;0.95;;;10.90;99.90;;;;;;5093753;28;20027;-82
2021/03/12 00:55:18;;;;;;;2.50;1.25;;;11.00;99.90;;;;;;5093429;28;20032;-82
2021/03/12 00:57:44;;;;;;;2.20;0.88;;;10.90;99.90;;;;;;5093571;28;20032;-82
2021/03/12 01:00:10;;;;;;;4.63;1.27;;;10.90;99.90;;;;;;5074286;28;20020;-82
2021/03/12 01:02:36;;;;;;;3.47;1.00;;;10.80;99.90;;;;;;5092867;28;20036;-82
2021/03/12 01:05:03;;;;;;;6.57;3.33;;;10.90;99.90;;;;;;5075258;28;20025;-82
2021/03/12 01:07:29;;;;;;;5.65;2.92;;;10.80;99.90;;;;;;5075094;28;20032;-82
2021/03/12 01:09:54;;;;;;;3.60;2.08;;;10.70;99.90;;;;;;5092891;28;20085;-82
2021/03/12 01:12:20;;;;;;;4.25;1.70;;;10.60;99.90;;;;;;5092708;28;20446;-82
2021/03/12 01:14:45;;;;;;;3.88;1.10;;;10.50;99.90;;;;;;5091450;28;20023;-82
2021/03/12 01:17:11;;;;;;;2.80;1.20;;;10.50;99.90;;;;;;5091549;28;20517;-82
2021/03/12 01:19:37;;;;;;;2.50;1.13;;;10.40;99.90;;;;;;5093124;28;20055;-82
2021/03/12 01:22:02;;;;;;;3.17;1.08;;;10.40;99.90;;;;;;5091841;28;20020;-82
2021/03/12 01:24:28;;;;;;;5.32;1.30;;;10.40;99.90;;;;;;5092338;28;20082;-82
2021/03/12 01:26:54;;;;;;;3.17;1.25;;;10.40;99.90;;;;;;5092688;28;20028;-82
2021/03/12 01:29:20;;;;;;;6.60;1.50;;;10.40;99.90;;;;;;5092185;28;20032;-82
2021/03/12 01:31:45;;;;;;;4.90;1.48;;;10.40;99.90;;;;;;5092669;28;20032;-82
2021/03/12 01:34:11;;;;;;;3.05;1.60;;;10.40;99.90;;;;;;5082995;28;20028;-82
2021/03/12 01:36:37;;;;;;;5.07;1.58;;;10.40;99.90;;;;;;5072453;28;20500;-82
2021/03/12 01:39:03;;;;;;;4.25;1.88;;;10.30;99.90;;;;;;5072536;28;20503;-82
2021/03/12 01:41:29;;;;;;;4.80;1.15;;;10.30;99.90;;;;;;5072526;28;20035;-82
2021/03/12 01:43:55;;;;;;;5.15;2.10;;;10.30;99.90;;;;;;5075794;28;20020;-82
2021/03/12 01:46:21;;;;;;;8.55;3.75;;;10.30;99.90;;;;;;5074324;28;20056;-82
2021/03/12 01:48:46;;;;;;;6.65;3.38;;;10.20;99.90;;;;;;5092701;28;20024;-82
2021/03/12 01:51:14;;;;;;;7.28;2.78;;;10.00;99.90;;;;;;5092603;28;20107;-82
2021/03/12 01:53:40;;;;;;;5.32;1.80;;;10.00;99.90;;;;;;5092697;28;20416;-82
2021/03/12 01:56:07;;;;;;;3.58;1.00;;;9.90;99.90;;;;;;5092652;28;20024;-82
2021/03/12 01:58:33;;;;;;;3.88;1.08;;;9.80;99.90;;;;;;5091749;28;20054;-82
2021/03/12 02:00:59;;;;;;;4.00;1.08;;;9.70;99.90;;;;;;5091871;28;20055;-82
2021/03/12 02:03:30;;;;;;;4.15;1.10;;;9.60;99.90;;;;;;5074056;28;20475;-82
2021/03/12 02:05:56;;;;;;;2.28;0.77;;;9.50;99.90;;;;;;5092425;28;20031;-82
2021/03/12 02:08:22;;;;;;;1.58;0.70;;;9.60;99.90;;;;;;5092295;28;20028;-82
2021/03/12 02:10:50;;;;;;;3.78;1.10;;;9.20;99.90;;;;;;5092881;28;20085;-82
2021/03/12 02:13:39;;;;;;;3.53;1.10;;;9.10;99.90;;;;;;5096222;28;20048;-82
2021/03/12 02:16:21;;;;;;;4.47;0.82;;;9.00;99.90;;;;;;5096421;28;20032;-82
2021/03/12 02:19:02;;;;;;;1.90;0.98;;;9.10;99.90;;;;;;5096746;28;20541;-82
2021/03/12 02:21:48;;;;;;;2.63;0.93;;;8.90;99.90;;;;;;5096637;28;20030;-82
2021/03/12 02:24:26;;;;;;;3.25;1.25;;;9.10;99.90;;;;;;5096406;28;20391;-82
2021/03/12 02:27:00;;;;;;;3.17;1.13;;;8.90;99.90;;;;;;5096499;28;20024;-82
2021/03/12 02:29:27;;;;;;;3.45;1.10;;;8.70;99.90;;;;;;5095006;28;20104;-83
2021/03/12 02:31:54;;;;;;;3.17;1.40;;;8.70;99.90;;;;;;5096295;28;20533;-82
2021/03/12 02:34:24;;;;;;;4.22;1.73;;;8.60;99.90;;;;;;5095793;28;20036;-82
2021/03/12 02:36:55;;;;;;;4.38;1.60;;;8.50;99.90;;;;;;5096272;28;20020;-82
2021/03/12 02:39:24;;;;;;;3.28;1.13;;;8.40;99.90;;;;;;5096168;28;20028;-82
2021/03/12 02:41:53;;;;;;;4.35;1.60;;;8.30;99.90;;;;;;5096081;28;20387;-82
2021/03/12 02:44:19;;;;;;;3.88;0.90;;;8.30;99.90;;;;;;5095076;28;20042;-82
2021/03/12 02:46:47;;;;;;;5.25;1.20;;;8.20;99.90;;;;;;5096027;28;20016;-82
2021/03/12 02:49:13;;;;;;;3.63;0.85;;;8.40;99.90;;;;;;5095940;28;20028;-82
2021/03/12 02:51:41;;;;;;;2.97;0.77;;;8.20;99.90;;;;;;5095798;28;20062;-82
2021/03/12 02:54:07;;;;;;;3.67;1.00;;;8.10;99.90;;;;;;5095966;28;20111;-82
2021/03/12 02:56:33;;;;;;;4.25;1.15;;;8.00;99.90;;;;;;5095739;28;20024;-82
2021/03/12 02:58:59;;;;;;;3.00;1.10;;;8.00;99.90;;;;;;5095333;28;20024;-82
2021/03/12 03:01:27;;;;;;;2.97;1.42;;;8.00;99.90;;;;;;5095537;28;20027;-82
2021/03/12 03:03:54;;;;;;;4.32;1.30;;;8.10;99.90;;;;;;5095489;28;20117;-82
2021/03/12 03:06:20;;;;;;;7.03;1.23;;;8.10;99.90;;;;;;5077496;28;20030;-82
2021/03/12 03:08:47;;;;;;;3.15;1.10;;;8.00;99.90;;;;;;5095661;28;20032;-82
2021/03/12 03:11:14;;;;;;;4.75;1.23;;;7.90;99.90;;;;;;5095587;28;20051;-82
2021/03/12 03:13:43;;;;;;;2.50;1.20;;;8.00;99.90;;;;;;5094048;28;20012;-82
2021/03/12 03:16:16;;;;;;;3.72;1.38;;;7.90;99.90;;;;;;5095265;28;20468;-82
2021/03/12 03:18:45;;;;;;;3.83;1.30;;;7.90;99.90;;;;;;5095384;28;20024;-82
2021/03/12 03:21:12;;;;;;;2.90;1.02;;;7.80;99.90;;;;;;5095462;28;20024;-82
2021/03/12 03:23:39;;;;;;;3.70;1.13;;;8.00;99.90;;;;;;5094823;28;20055;-82
2021/03/12 03:26:06;;;;;;;2.17;1.00;;;7.80;99.90;;;;;;5095240;28;20024;-82
2021/03/12 03:28:32;;;;;;;4.00;1.33;;;7.80;99.90;;;;;;5094570;28;20024;-82
2021/03/12 03:31:03;;;;;;;6.93;1.33;;;7.70;99.90;;;;;;5077158;28;20392;-82
2021/03/12 03:33:29;;;;;;;5.22;1.42;;;7.90;99.90;;;;;;5094823;28;20471;-82
2021/03/12 03:35:55;;;;;;;4.22;1.40;;;7.80;99.90;;;;;;5095053;28;20599;-82
2021/03/12 03:38:22;;;;;;;6.57;1.40;;;8.00;99.90;;;;;;5095038;28;20107;-82
2021/03/12 03:40:48;;;;;;;5.40;1.45;;;7.60;99.90;;;;;;5095016;28;20024;-82
2021/03/12 03:43:15;;;;;;;6.22;1.60;;;8.10;99.90;;;;;;5093684;28;20020;-82
2021/03/12 03:45:42;;;;;;;3.75;1.30;;;7.70;99.90;;;;;;5094874;28;20032;-82
2021/03/12 03:48:09;;;;;;;3.97;1.10;;;7.60;99.90;;;;;;5094958;28;20491;-82
2021/03/12 03:50:37;;;;;;;4.15;1.30;;;7.30;99.90;;;;;;5095119;28;20039;-82
2021/03/12 03:53:06;;;;;;;2.90;1.50;;;7.20;99.90;;;;;;5094799;28;20086;-82
2021/03/12 03:55:32;;;;;;;3.85;1.92;;;7.40;99.90;;;;;;5094664;28;20051;-82
2021/03/12 03:58:00;;;;;;;5.22;1.52;;;7.60;99.90;;;;;;5094176;28;20123;-82
2021/03/12 04:00:27;;;;;;;5.00;1.42;;;7.60;99.90;;;;;;5094618;28;20137;-82
2021/03/12 04:02:54;;;;;;;4.35;1.77;;;7.20;99.90;;;;;;5094455;28;20484;-82
2021/03/12 04:05:21;;;;;;;5.50;1.58;;;7.30;99.90;;;;;;5094553;28;20118;-82
2021/03/12 04:07:46;;;;;;;6.05;1.60;;;7.30;99.90;;;;;;5094346;28;20024;-82
2021/03/12 04:10:13;;;;;;;3.05;1.52;;;7.00;99.90;;;;;;5094332;28;20024;-82
2021/03/12 04:12:39;;;;;;;4.25;1.63;;;7.00;99.90;;;;;;5093755;28;20024;-82
2021/03/12 04:15:07;;;;;;;4.75;1.40;;;7.50;99.90;;;;;;5075515;28;20081;-82
2021/03/12 04:17:34;;;;;;;6.70;1.55;;;7.00;99.90;;;;;;5094249;28;20549;-82
2021/03/12 04:20:01;;;;;;;3.28;1.38;;;7.00;99.90;;;;;;5094399;28;20024;-82
2021/03/12 04:22:28;;;;;;;5.47;1.33;;;7.00;99.90;;;;;;5094143;28;20095;-82
2021/03/12 04:24:54;;;;;;;3.92;1.20;;;7.10;99.90;;;;;;5093793;28;20621;-82
2021/03/12 04:27:20;;;;;;;4.68;1.20;;;7.00;99.90;;;;;;5093860;28;20016;-82
2021/03/12 04:29:47;;;;;;;3.70;1.13;;;7.20;99.90;;;;;;5093955;28;20457;-82
2021/03/12 04:32:13;;;;;;;5.07;1.50;;;7.30;99.90;;;;;;5094175;28;20020;-82
2021/03/12 04:34:39;;;;;;;4.90;1.67;;;7.20;99.90;;;;;;5092737;28;20483;-82
2021/03/12 04:37:05;;;;;;;4.68;2.13;;;7.10;99.90;;;;;;5093879;28;20043;-82
2021/03/12 04:39:32;;;;;;;3.50;1.50;;;7.50;99.90;;;;;;5093548;28;20060;-82
2021/03/12 04:41:58;;;;;;;5.95;2.03;;;6.90;99.90;;;;;;5093195;28;20012;-82
2021/03/12 04:44:25;;;;;;;5.15;2.20;;;6.80;99.90;;;;;;5093276;28;20479;-82
2021/03/12 04:46:51;;;;;;;4.93;1.92;;;7.10;99.90;;;;;;5093664;28;20028;-82
2021/03/12 04:49:18;;;;;;;3.97;1.73;;;6.60;99.90;;;;;;5093579;28;20028;-82
2021/03/12 04:51:45;;;;;;;8.18;2.10;;;6.70;99.90;;;;;;5073278;28;20052;-82
2021/03/12 04:54:15;;;;;;;4.95;2.17;;;6.70;99.90;;;;;;5073217;28;20025;-82
2021/03/12 04:56:40;;;;;;;5.75;2.00;;;6.80;99.90;;;;;;5073137;28;20028;-82
2021/03/12 04:59:06;;;;;;;10.20;3.53;;;6.90;99.90;;;;;;5091821;28;20032;-82
2021/03/12 05:01:34;;;;;;;14.27;8.23;;;7.00;99.90;;;;;;5076213;28;20488;-82
2021/03/12 05:04:05;;;;;;;41.95;22.63;;;7.30;99.90;;;;;;5072353;28;20055;-82
2021/03/12 05:06:32;;;;;;;30.33;16.40;;;7.30;99.90;;;;;;5072777;28;20073;-82
2021/03/12 05:08:59;;;;;;;32.40;17.75;;;7.20;99.90;;;;;;5072834;28;20036;-82
2021/03/12 05:11:25;;;;;;;24.80;11.75;;;7.20;99.90;;;;;;5073079;28;20404;-83
2021/03/12 05:13:51;;;;;;;13.05;7.57;;;7.60;99.90;;;;;;5081334;28;20031;-83
2021/03/12 05:16:18;;;;;;;10.82;5.88;;;7.00;99.90;;;;;;5072942;28;20025;-83
2021/03/12 05:18:44;;;;;;;10.88;4.93;;;7.50;99.90;;;;;;5072750;28;20029;-82
2021/03/12 05:21:09;;;;;;;5.10;2.10;;;7.10;99.90;;;;;;5072874;28;20515;-82
2021/03/12 05:23:35;;;;;;;5.88;1.95;;;6.70;99.90;;;;;;5072591;28;20150;-82
2021/03/12 05:26:01;;;;;;;3.75;1.88;;;6.60;99.90;;;;;;5072659;28;20043;-82
2021/03/12 05:28:27;;;;;;;4.88;1.60;;;6.90;99.90;;;;;;5091026;28;20020;-82
2021/03/12 05:30:53;;;;;;;6.38;2.58;;;6.80;99.90;;;;;;5093008;28;20020;-83
2021/03/12 05:33:19;;;;;;;4.97;2.60;;;7.00;99.90;;;;;;5092736;28;20043;-83
2021/03/12 05:35:44;;;;;;;3.92;2.08;;;6.40;99.90;;;;;;5092634;28;20039;-82
2021/03/12 05:38:10;;;;;;;6.72;2.60;;;6.40;99.90;;;;;;5092857;28;20024;-82
2021/03/12 05:40:36;;;;;;;5.50;1.98;;;6.40;99.90;;;;;;5092598;28;20027;-82
2021/03/12 05:43:02;;;;;;;5.43;2.25;;;6.50;99.90;;;;;;5092559;28;20025;-82
2021/03/12 05:45:28;;;;;;;6.00;2.30;;;6.80;99.90;;;;;;5093359;28;20016;-83
2021/03/12 05:47:55;;;;;;;5.20;1.90;;;6.30;99.90;;;;;;5092219;28;20024;-83
2021/03/12 05:50:21;;;;;;;5.63;2.17;;;6.20;99.90;;;;;;5074565;28;20103;-83
2021/03/12 05:52:48;;;;;;;7.70;2.55;;;6.20;99.90;;;;;;5081863;28;20523;-82
2021/03/12 05:55:17;;;;;;;5.15;2.00;;;6.20;99.90;;;;;;5086135;28;20112;-82
2021/03/12 05:57:44;;;;;;;7.10;1.90;;;6.20;99.90;;;;;;5087307;28;20433;-82
2021/03/12 06:00:11;;;;;;;5.22;2.03;;;6.20;99.90;;;;;;5092012;28;20012;-82
2021/03/12 06:02:37;;;;;;;5.70;1.80;;;6.10;99.90;;;;;;5091705;28;20044;-82
2021/03/12 06:05:08;;;;;;;5.85;2.08;;;6.10;99.90;;;;;;5081391;28;20012;-82
2021/03/12 06:07:38;;;;;;;6.32;2.25;;;6.20;99.90;;;;;;5091846;28;20028;-82
2021/03/12 06:10:06;;;;;;;6.03;2.13;;;6.20;99.90;;;;;;5092370;28;20138;-83
2021/03/12 06:12:32;;;;;;;3.85;1.77;;;6.30;99.90;;;;;;5080754;28;20028;-82
2021/03/12 06:15:00;;;;;;;4.47;1.83;;;6.30;99.90;;;;;;5072113;28;20488;-81
2021/03/12 06:17:35;;;;;;;6.10;1.95;;;6.60;99.90;;;;;;5091466;28;20571;-81
2021/03/12 06:20:04;;;;;;;5.10;1.90;;;6.40;99.90;;;;;;5091304;28;20123;-81
2021/03/12 06:22:30;;;;;;;6.88;2.05;;;6.60;99.90;;;;;;5071791;28;20032;-83
2021/03/12 06:25:12;;;;;;;7.13;2.22;;;6.30;99.90;;;;;;5076755;28;20476;-84
2021/03/12 06:27:38;;;;;;;6.30;2.10;;;6.30;99.90;;;;;;5067033;28;20036;-82
2021/03/12 06:30:04;;;;;;;5.45;2.28;;;6.50;99.90;;;;;;5057285;28;20032;-82
2021/03/12 06:32:48;;;;;;;4.72;1.85;;;6.50;99.90;;;;;;5082250;28;20028;-82
2021/03/12 06:35:19;;;;;;;5.95;2.15;;;6.60;99.90;;;;;;5068804;28;20496;-82
2021/03/12 06:37:47;;;;;;;5.50;2.00;;;7.20;99.90;;;;;;5083775;28;20040;-82
2021/03/12 06:40:21;;;;;;;8.27;2.47;;;6.80;99.90;;;;;;5075216;28;20058;-82
2021/03/12 06:43:07;;;;;;;7.05;2.20;;;6.80;99.90;;;;;;5083179;28;20028;-82
2021/03/12 06:45:55;;;;;;;5.03;2.10;;;6.90;99.90;;;;;;5082148;28;20013;-82
2021/03/12 06:48:23;;;;;;;5.88;2.10;;;6.90;99.90;;;;;;5077530;28;20070;-82
2021/03/12 06:51:11;;;;;;;6.68;2.67;;;7.30;99.90;;;;;;5086166;28;20032;-82
2021/03/12 06:53:41;;;;;;;5.85;1.85;;;7.00;99.90;;;;;;5076096;28;20495;-82
2021/03/12 06:56:13;;;;;;;7.78;2.10;;;7.00;99.90;;;;;;5082518;28;20028;-82
2021/03/12 06:58:56;;;;;;;6.22;3.05;;;7.50;99.90;;;;;;5086452;28;20032;-82
2021/03/12 07:01:21;;;;;;;7.65;3.13;;;7.30;99.90;;;;;;5083784;28;20157;-81
2021/03/12 07:04:06;;;;;;;8.32;2.20;;;7.50;99.90;;;;;;5093722;28;20057;-83
2021/03/12 07:06:50;;;;;;;7.03;2.15;;;7.70;99.90;;;;;;5095655;28;20035;-82
2021/03/12 07:09:17;;;;;;;5.75;2.15;;;7.80;99.90;;;;;;5095784;28;20067;-82
2021/03/12 07:11:44;;;;;;;4.88;2.28;;;7.90;99.90;;;;;;5095442;28;20365;-82
2021/03/12 07:14:10;;;;;;;7.80;2.75;;;8.00;99.90;;;;;;5093354;28;20025;-84
2021/03/12 07:16:35;;;;;;;6.63;2.47;;;8.00;99.90;;;;;;5094865;28;20462;-83
2021/03/12 07:19:02;;;;;;;5.43;2.50;;;8.00;99.90;;;;;;5095188;28;20030;-83
2021/03/12 07:21:29;;;;;;;7.57;2.22;;;7.90;99.90;;;;;;5093944;28;20445;-83
2021/03/12 07:24:02;;;;;;;6.55;2.53;;;7.90;99.90;;;;;;5077315;28;20428;-83
2021/03/12 07:26:45;;;;;;;6.82;3.20;;;8.00;99.90;;;;;;5095206;28;20016;-83
2021/03/12 07:29:12;;;;;;;6.47;3.10;;;8.20;99.90;;;;;;5095174;28;20028;-83
2021/03/12 07:31:40;;;;;;;8.27;3.22;;;8.80;99.90;;;;;;5095060;28;20024;-83
2021/03/12 07:34:33;;;;;;;6.53;2.70;;;8.50;99.90;;;;;;5076596;28;20063;-83
2021/03/12 07:37:01;;;;;;;13.82;2.92;;;8.60;99.90;;;;;;5083771;28;20089;-82
2021/03/12 07:39:36;;;;;;;8.80;3.03;;;8.70;99.90;;;;;;5094732;28;20024;-83
2021/03/12 07:42:02;;;;;;;8.02;3.15;;;8.80;99.90;;;;;;5094948;28;20016;-83
2021/03/12 07:44:28;;;;;;;8.85;3.67;;;8.90;99.90;;;;;;5094853;28;20093;-82
2021/03/12 07:46:54;;;;;;;12.77;3.67;;;9.00;99.90;;;;;;5095066;28;20021;-82
2021/03/12 07:49:32;;;;;;;10.45;3.10;;;9.30;99.90;;;;;;5094513;28;20395;-82
2021/03/12 07:51:59;;;;;;;8.02;2.70;;;9.50;99.90;;;;;;5094672;28;20530;-82
2021/03/12 07:54:45;;;;;;;8.27;3.30;;;9.70;99.90;;;;;;5076567;28;20517;-82
2021/03/12 07:57:16;;;;;;;6.45;2.75;;;9.60;99.90;;;;;;5094664;28;20106;-82
2021/03/12 07:59:47;;;;;;;7.72;2.90;;;9.60;99.90;;;;;;5094654;28;20024;-82
2021/03/12 08:02:14;;;;;;;8.57;3.10;;;9.60;99.90;;;;;;5094158;28;20047;-82
2021/03/12 08:04:39;;;;;;;11.13;2.95;;;9.80;99.90;;;;;;5094474;28;20024;-81
2021/03/12 08:07:20;;;;;;;9.20;2.85;;;9.80;99.90;;;;;;5093848;28;20028;-82
2021/03/12 08:09:56;;;;;;;7.45;2.78;;;9.80;99.90;;;;;;5092862;28;20028;-82
2021/03/12 08:12:31;;;;;;;4.40;2.75;;;9.90;99.90;;;;;;5093910;28;20368;-82
2021/03/12 08:15:15;;;;;;;7.43;2.28;;;10.40;99.90;;;;;;5093676;28;20035;-82
2021/03/12 08:17:44;;;;;;;9.52;3.00;;;10.60;99.90;;;;;;5093803;28;20027;-82
2021/03/12 08:20:25;;;;;;;7.18;2.90;;;10.70;99.90;;;;;;5094228;28;20028;-82
2021/03/12 08:22:52;;;;;;;9.18;3.08;;;10.60;99.90;;;;;;5094224;28;20020;-81
2021/03/12 08:25:36;;;;;;;11.95;3.30;;;10.60;99.90;;;;;;5093930;28;20028;-81
2021/03/12 08:28:07;;;;;;;5.28;3.20;;;10.90;99.90;;;;;;5094184;28;20051;-82
2021/03/12 08:30:33;;;;;;;10.90;3.95;;;11.10;99.90;;;;;;5093911;28;20055;-82
2021/03/12 08:33:00;;;;;;;8.55;3.80;;;11.10;99.90;;;;;;5093933;28;20401;-82
2021/03/12 08:35:41;;;;;;;9.50;3.47;;;11.20;99.90;;;;;;5093273;28;20040;-82
2021/03/12 08:38:22;;;;;;;8.95;3.85;;;11.70;99.90;;;;;;5073691;28;20025;-81
2021/03/12 08:40:56;;;;;;;8.70;3.28;;;11.80;99.90;;;;;;5073638;28;20028;-81
2021/03/12 08:43:24;;;;;;;10.65;4.07;;;12.00;99.90;;;;;;5073413;28;20027;-81
2021/03/12 08:45:56;;;;;;;12.82;3.83;;;12.50;99.90;;;;;;5073090;28;20025;-81
2021/03/12 08:48:32;;;;;;;12.32;3.70;;;12.90;99.90;;;;;;5073457;28;20042;-81
2021/03/12 08:51:17;;;;;;;9.77;3.03;;;13.30;99.90;;;;;;5088612;28;20028;-81
2021/03/12 08:54:00;;;;;;;8.15;3.00;;;13.40;99.90;;;;;;5093628;28;20042;-81
2021/03/12 08:56:31;;;;;;;12.82;3.20;;;13.40;99.90;;;;;;5093526;28;20023;-81
2021/03/12 08:58:58;;;;;;;11.20;3.20;;;13.40;99.90;;;;;;5093593;28;20445;-81
2021/03/12 09:01:29;;;;;;;9.25;2.83;;;13.20;99.90;;;;;;5093351;28;20037;-81
2021/03/12 09:04:00;;;;;;;6.43;2.50;;;13.60;99.90;;;;;;5092233;28;20064;-82
2021/03/12 09:06:28;;;;;;;8.02;2.58;;;14.00;99.90;;;;;;5093370;28;20016;-82
2021/03/12 09:08:55;;;;;;;7.97;2.95;;;14.40;99.90;;;;;;5093256;28;20028;-81
2021/03/12 09:11:22;;;;;;;5.28;2.30;;;14.80;99.90;;;;;;5093292;28;20046;-82
2021/03/12 09:13:49;;;;;;;6.18;2.08;;;14.90;99.90;;;;;;5093063;28;20134;-81
2021/03/12 09:16:24;;;;;;;6.35;1.30;;;15.30;99.90;;;;;;5092719;28;20526;-81
2021/03/12 09:18:52;;;;;;;5.97;1.80;;;15.50;99.90;;;;;;5054875;28;20049;-81
2021/03/12 09:21:20;;;;;;;4.38;1.92;;;15.90;99.90;;;;;;5072414;28;20395;-81
2021/03/12 09:23:57;;;;;;;5.03;1.45;;;16.00;99.90;;;;;;5072745;28;20021;-81
2021/03/12 09:26:41;;;;;;;5.88;1.63;;;15.50;99.90;;;;;;5072904;28;20172;-81
2021/03/12 09:29:10;;;;;;;8.18;1.70;;;17.10;99.90;;;;;;5072377;28;20473;-81
2021/03/12 09:31:40;;;;;;;4.90;1.48;;;19.30;99.90;;;;;;5077119;28;20383;-81
2021/03/12 09:34:09;;;;;;;6.97;1.50;;;21.70;99.90;;;;;;5092569;28;20028;-81
2021/03/12 09:36:43;;;;;;;4.50;1.63;;;23.80;99.90;;;;;;5092711;28;20066;-81
2021/03/12 09:39:21;;;;;;;7.10;1.60;;;25.20;99.90;;;;;;5092672;28;20108;-81
2021/03/12 09:41:53;;;;;;;5.90;2.03;;;26.90;99.90;;;;;;5092524;28;20030;-81
2021/03/12 09:44:18;;;;;;;4.72;1.85;;;27.80;99.90;;;;;;5092421;28;20032;-81
2021/03/12 09:46:52;;;;;;;4.00;1.45;;;27.70;99.90;;;;;;5092419;28;20077;-81
2021/03/12 09:49:24;;;;;;;8.30;2.22;;;28.00;99.90;;;;;;5092591;28;20038;-82
2021/03/12 09:51:55;;;;;;;4.80;1.35;;;28.60;99.90;;;;;;5092667;28;20032;-82
2021/03/12 09:54:23;;;;;;;3.75;1.38;;;30.10;99.90;;;;;;5092623;28;20384;-82
2021/03/12 09:56:51;;;;;;;7.55;2.00;;;31.30;99.90;;;;;;5092481;28;20024;-82
2021/03/12 09:59:25;;;;;;;6.22;1.73;;;31.90;99.90;;;;;;5092194;28;20034;-82
2021/03/12 10:01:52;;;;;;;5.45;1.70;;;31.40;99.90;;;;;;5091755;28;20024;-82
2021/03/12 10:04:36;;;;;;;6.43;1.67;;;28.50;99.90;;;;;;5092201;28;20046;-83
2021/03/12 10:07:15;;;;;;;4.97;1.70;;;23.40;99.90;;;;;;5092369;28;20035;-82
2021/03/12 10:09:46;;;;;;;5.55;1.60;;;24.00;99.90;;;;;;5092339;28;20024;-82
2021/03/12 10:12:24;;;;;;;5.15;1.73;;;25.30;99.90;;;;;;5092367;28;20545;-82
2021/03/12 10:14:50;;;;;;;6.45;1.95;;;26.40;99.90;;;;;;5092098;28;20020;-82
2021/03/12 10:17:28;;;;;;;4.82;1.88;;;22.50;99.90;;;;;;5074006;28;20024;-82
2021/03/12 10:19:58;;;;;;;5.43;1.70;;;25.90;99.90;;;;;;5091914;28;20102;-82
2021/03/12 10:22:26;;;;;;;9.13;1.83;;;24.80;99.90;;;;;;5092385;28;20021;-81
2021/03/12 10:24:57;;;;;;;5.05;1.58;;;27.00;99.90;;;;;;5092320;28;20494;-82
2021/03/12 10:27:24;;;;;;;7.13;2.03;;;29.30;99.90;;;;;;5092080;28;20400;-82
2021/03/12 10:29:51;;;;;;;6.97;1.77;;;23.10;99.90;;;;;;5092223;28;20028;-82
2021/03/12 10:32:17;;;;;;;4.75;1.50;;;19.80;99.90;;;;;;5093135;28;20055;-82
2021/03/12 10:34:51;;;;;;;4.10;1.60;;;18.50;99.90;;;;;;5087302;28;20056;-82
2021/03/12 10:37:22;;;;;;;5.55;1.80;;;19.30;99.90;;;;;;5075800;28;20024;-82
2021/03/12 10:39:51;;;;;;;5.70;1.80;;;18.00;99.90;;;;;;5075921;28;20016;-82
2021/03/12 10:42:28;;;;;;;7.03;1.65;;;17.60;99.90;;;;;;5075635;28;20017;-82
2021/03/12 10:45:04;;;;;;;8.43;1.80;;;17.40;99.90;;;;;;5075799;28;20021;-81
2021/03/12 10:47:30;;;;;;;6.95;2.53;;;23.80;99.90;;;;;;5075786;28;20032;-81
2021/03/12 10:49:55;;;;;;;5.57;1.58;;;30.00;99.90;;;;;;5094106;28;20035;-81
2021/03/12 10:52:27;;;;;;;3.78;1.60;;;33.20;99.90;;;;;;5096170;28;20035;-81
2021/03/12 10:54:53;;;;;;;7.63;2.08;;;34.00;99.90;;;;;;5095845;28;20031;-82
2021/03/12 10:57:40;;;;;;;5.80;1.85;;;35.20;99.90;;;;;;5095360;28;20032;-82
2021/03/12 11:00:18;;;;;;;4.85;2.10;;;35.70;99.90;;;;;;5075600;28;20031;-82
2021/03/12 11:02:44;;;;;;;5.80;1.92;;;35.90;99.90;;;;;;5088002;28;20526;-84
2021/03/12 11:05:10;;;;;;;12.35;7.32;;;35.50;99.90;;;;;;5095021;28;20028;-84
2021/03/12 11:07:36;;;;;;;6.10;2.30;;;34.80;99.90;;;;;;5092598;28;20027;-83
2021/03/12 11:10:02;;;;;;;5.30;1.60;;;35.20;99.90;;;;;;5095064;28;20029;-81
2021/03/12 11:12:40;;;;;;;7.65;3.70;;;35.30;99.90;;;;;;5088689;28;20016;-81
2021/03/12 11:15:07;;;;;;;8.13;2.33;;;37.60;99.90;;;;;;5071991;28;20438;-82
2021/03/12 11:17:32;;;;;;;5.30;1.50;;;36.60;99.90;;;;;;5077000;28;20111;-82
2021/03/12 11:19:58;;;;;;;4.72;1.80;;;34.80;99.90;;;;;;5095278;28;20107;-81
2021/03/12 11:22:23;;;;;;;4.15;1.65;;;34.20;99.90;;;;;;5095398;28;20017;-81
2021/03/12 11:24:49;;;;;;;5.68;1.98;;;36.00;99.90;;;;;;5095282;28;20051;-82
2021/03/12 11:27:15;;;;;;;4.90;1.80;;;36.60;99.90;;;;;;5094965;28;20059;-82
2021/03/12 11:29:42;;;;;;;6.05;2.00;;;37.20;99.90;;;;;;5095067;28;20066;-80
2021/03/12 11:32:09;;;;;;;5.88;2.17;;;36.00;99.90;;;;;;5080483;28;20021;-81
2021/03/12 11:34:35;;;;;;;4.45;2.20;;;36.60;99.90;;;;;;5084536;28;20056;-81
2021/03/12 11:37:01;;;;;;;5.03;1.85;;;37.30;99.90;;;;;;5094969;28;20076;-80
2021/03/12 11:39:27;;;;;;;5.38;1.90;;;38.10;99.90;;;;;;5076922;28;20028;-80
2021/03/12 11:41:52;;;;;;;5.82;2.03;;;37.90;99.90;;;;;;5094527;28;20119;-81
2021/03/12 11:44:18;;;;;;;9.40;1.90;;;37.90;99.90;;;;;;5094779;28;20055;-80
2021/03/12 11:46:43;;;;;;;5.45;2.00;;;38.20;99.90;;;;;;5093169;28;20047;-81
2021/03/12 11:49:09;;;;;;;5.15;1.85;;;38.10;99.90;;;;;;5089436;28;20035;-80
2021/03/12 11:51:36;;;;;;;5.82;1.90;;;36.60;99.90;;;;;;5094803;28;20040;-80
2021/03/12 11:54:02;;;;;;;6.75;2.53;;;37.10;99.90;;;;;;5094574;28;20081;-81
2021/03/12 11:56:27;;;;;;;4.70;1.52;;;36.10;99.90;;;;;;5093531;28;20450;-80
2021/03/12 11:58:54;;;;;;;4.05;1.63;;;33.50;99.90;;;;;;5094362;28;20114;-82
2021/03/12 12:01:20;;;;;;;6.70;2.03;;;28.20;99.90;;;;;;5076420;28;20408;-83
2021/03/12 12:03:45;;;;;;;4.93;1.80;;;30.80;99.90;;;;;;5093791;28;20530;-81
2021/03/12 12:06:11;;;;;;;3.92;1.42;;;34.40;99.90;;;;;;5094433;28;20017;-81
2021/03/12 12:08:36;;;;;;;5.88;1.77;;;30.60;99.90;;;;;;5094106;28;20067;-81
2021/03/12 12:11:02;;;;;;;4.13;1.80;;;30.70;99.90;;;;;;5094354;28;20027;-81
2021/03/12 12:13:28;;;;;;;5.65;1.73;;;26.80;99.90;;;;;;5094556;28;20035;-81
2021/03/12 12:15:54;;;;;;;4.22;2.08;;;25.60;99.90;;;;;;5094313;28;20024;-81
2021/03/12 12:18:19;;;;;;;4.60;1.98;;;29.70;99.90;;;;;;5094046;28;20032;-80
2021/03/12 12:20:45;;;;;;;7.60;1.98;;;31.40;99.90;;;;;;5093551;28;20031;-83
2021/03/12 12:23:12;;;;;;;4.88;1.55;;;32.40;99.90;;;;;;5075765;28;20024;-82
2021/03/12 12:25:38;;;;;;;5.60;1.92;;;33.80;99.90;;;;;;5094250;28;20443;-82
2021/03/12 12:28:06;;;;;;;6.40;2.03;;;28.80;99.90;;;;;;5075953;28;20028;-82
2021/03/12 12:30:32;;;;;;;6.10;1.88;;;25.70;99.90;;;;;;5093773;28;20016;-81
2021/03/12 12:32:58;;;;;;;7.07;2.45;;;28.20;99.90;;;;;;5093859;28;20127;-81
2021/03/12 12:35:23;;;;;;;4.15;1.90;;;33.10;99.90;;;;;;5093427;28;20095;-81
2021/03/12 12:37:53;;;;;;;5.85;1.95;;;29.90;99.90;;;;;;5093321;28;20433;-81
2021/03/12 12:40:21;;;;;;;2.97;1.40;;;24.80;99.90;;;;;;5093718;28;20012;-81
2021/03/12 12:42:48;;;;;;;2.70;1.40;;;23.10;99.90;;;;;;5093865;28;20032;-81
2021/03/12 12:45:14;;;;;;;6.53;1.80;;;23.20;99.90;;;;;;5093554;28;20533;-81
2021/03/12 12:47:40;;;;;;;5.03;1.50;;;25.40;99.90;;;;;;5093787;28;20476;-81
2021/03/12 12:50:07;;;;;;;5.38;1.67;;;23.30;99.90;;;;;;5092895;28;20035;-81
2021/03/12 12:52:33;;;;;;;3.95;1.58;;;22.40;99.90;;;;;;5093168;28;20547;-81
2021/03/12 12:55:00;;;;;;;6.45;1.67;;;22.00;99.90;;;;;;5093083;28;20047;-81
2021/03/12 12:57:25;;;;;;;4.72;1.50;;;21.70;99.90;;;;;;5093491;28;20032;-81
2021/03/12 12:59:51;;;;;;;4.97;1.50;;;21.20;99.90;;;;;;5093396;28;20030;-81